Time;durP1;ratioP1;P1;durP2;ratioP2;P2;SDS_P1;SDS_P2;PMS_P1;PMS_P2;Temp;Humidity;BMP_temperature;BMP_pressure;BME280_temperature;BME280_humidity;BME280_pressure;Samples;Min_cycle;Max_cycle;Signal;HPM_P1;HPM_P2
2024/04/09 00:02:22;;;;;;;8.80;7.90;;;24.00;57.70;;;;;;5519683;25;20540;-83
2024/04/09 00:05:31;;;;;;;11.73;8.40;;;24.00;57.70;;;;;;5497933;25;20554;-83
2024/04/09 00:08:25;;;;;;;8.53;7.67;;;24.00;57.60;;;;;;5455543;25;20486;-83
2024/04/09 00:15:00;;;;;;;7.50;6.80;;;24.00;57.70;;;;;;5400068;25;20432;-84
2024/04/09 00:17:44;;;;;;;;;;;;;;;;;;;;;
2024/04/09 00:24:10;;;;;;;8.97;7.53;;;24.00;57.80;;;;;;5502878;25;20460;-82
2024/04/09 00:26:56;;;;;;;8.43;7.27;;;24.00;57.60;;;;;;5505804;25;20546;-83
2024/04/09 00:30:00;;;;;;;8.30;7.50;;;24.00;57.80;;;;;;5495583;25;20973;-84
2024/04/09 00:32:33;;;;;;;8.00;7.20;;;23.90;57.90;;;;;;5493378;25;20446;-80
2024/04/09 00:35:03;;;;;;;7.67;6.87;;;23.90;57.60;;;;;;5506425;25;20441;-80
2024/04/09 00:37:31;;;;;;;7.97;6.87;;;23.90;57.60;;;;;;5505406;25;20516;-80
2024/04/09 00:40:02;;;;;;;7.53;6.73;;;23.90;57.70;;;;;;5504330;25;20491;-80
2024/04/09 00:42:29;;;;;;;7.97;7.17;;;23.90;57.70;;;;;;5512808;25;20473;-81
2024/04/09 00:45:00;;;;;;;7.43;6.73;;;23.90;57.90;;;;;;5515878;25;20466;-81
2024/04/09 00:47:28;;;;;;;7.50;6.80;;;23.90;57.70;;;;;;5514387;25;20585;-81
2024/04/09 00:50:00;;;;;;;6.90;6.20;;;23.90;57.90;;;;;;5517240;25;20464;-81
2024/04/09 00:52:27;;;;;;;6.90;6.30;;;23.90;58.00;;;;;;5520717;25;20464;-80
2024/04/09 00:54:57;;;;;;;9.07;7.23;;;23.90;57.70;;;;;;5508032;25;20490;-81
2024/04/09 00:57:25;;;;;;;7.13;6.43;;;23.80;57.90;;;;;;5515944;25;20468;-81
2024/04/09 00:59:55;;;;;;;7.00;6.40;;;23.90;57.90;;;;;;5515064;25;20507;-80
2024/04/09 01:02:23;;;;;;;7.53;6.83;;;23.90;58.10;;;;;;5512334;25;20452;-81
2024/04/09 01:04:55;;;;;;;8.00;7.30;;;23.90;57.80;;;;;;5513566;25;20477;-81
2024/04/09 01:07:25;;;;;;;6.87;6.27;;;23.80;57.80;;;;;;5507920;25;20520;-81
2024/04/09 01:09:55;;;;;;;7.03;6.30;;;23.80;57.80;;;;;;5516257;25;20510;-81
2024/04/09 01:12:22;;;;;;;7.33;6.63;;;23.90;57.70;;;;;;5512939;25;20449;-81
2024/04/09 01:14:53;;;;;;;8.10;6.63;;;23.90;57.70;;;;;;5509567;25;20450;-81
2024/04/09 01:17:20;;;;;;;7.90;7.10;;;23.90;57.90;;;;;;5527914;25;20465;-80
2024/04/09 01:19:50;;;;;;;8.37;6.40;;;23.90;58.00;;;;;;5529089;25;20544;-81
2024/04/09 01:22:17;;;;;;;6.80;6.10;;;23.90;57.90;;;;;;5514542;25;20605;-80
2024/04/09 01:24:50;;;;;;;6.50;5.90;;;23.90;57.90;;;;;;5508874;25;20440;-80
2024/04/09 01:27:17;;;;;;;6.80;6.10;;;23.80;57.80;;;;;;5502991;25;20801;-80
2024/04/09 01:29:49;;;;;;;8.93;6.40;;;23.80;57.80;;;;;;5514729;25;20515;-80
2024/04/09 01:32:17;;;;;;;6.47;5.87;;;23.80;57.90;;;;;;5506786;25;20516;-80
2024/04/09 01:34:47;;;;;;;6.40;5.77;;;23.80;57.90;;;;;;5513032;25;20499;-79
2024/04/09 01:37:17;;;;;;;7.30;5.60;;;23.80;57.80;;;;;;5543642;25;20507;-80
2024/04/09 01:39:50;;;;;;;7.60;5.80;;;23.90;58.50;;;;;;5522192;25;20469;-81
2024/04/09 01:42:18;;;;;;;6.57;5.97;;;23.90;58.00;;;;;;5521963;25;20484;-81
2024/04/09 01:44:49;;;;;;;7.03;6.33;;;23.80;57.90;;;;;;5522616;25;20521;-80
2024/04/09 01:47:17;;;;;;;7.27;6.57;;;23.80;57.90;;;;;;5521715;25;20508;-81
2024/04/09 01:49:47;;;;;;;6.70;6.00;;;23.80;57.80;;;;;;5522795;25;20509;-81
2024/04/09 01:52:14;;;;;;;7.47;6.00;;;23.80;57.90;;;;;;5527918;25;20461;-80
2024/04/09 01:54:46;;;;;;;6.33;5.73;;;23.80;57.90;;;;;;5528209;25;20453;-81
2024/04/09 01:57:16;;;;;;;6.40;5.80;;;23.80;57.90;;;;;;5528909;25;20598;-80
2024/04/09 01:59:46;;;;;;;5.83;5.33;;;23.80;57.90;;;;;;5500066;25;20522;-81
2024/04/09 02:02:15;;;;;;;6.17;5.63;;;23.80;57.80;;;;;;5521167;25;20500;-82
2024/04/09 02:04:45;;;;;;;6.33;5.77;;;23.80;58.00;;;;;;5522939;25;20901;-81
2024/04/09 02:07:13;;;;;;;5.80;5.30;;;23.80;57.70;;;;;;5492056;25;20462;-82
2024/04/09 02:09:43;;;;;;;5.40;5.00;;;23.80;58.00;;;;;;5527077;25;20516;-82
2024/04/09 02:12:10;;;;;;;6.20;5.60;;;23.80;58.10;;;;;;5513132;25;20444;-82
2024/04/09 02:14:42;;;;;;;6.50;5.90;;;23.80;57.80;;;;;;5528006;25;20476;-81
2024/04/09 02:17:11;;;;;;;6.00;5.50;;;23.80;57.80;;;;;;5516345;25;20474;-81
2024/04/09 02:19:41;;;;;;;6.27;5.67;;;23.80;58.00;;;;;;5526126;25;20453;-80
2024/04/09 02:22:09;;;;;;;6.10;5.50;;;23.80;58.10;;;;;;5508876;25;20462;-79
2024/04/09 02:24:39;;;;;;;8.17;5.70;;;23.80;58.10;;;;;;5524762;25;20517;-81
2024/04/09 02:27:06;;;;;;;5.67;5.23;;;23.80;58.00;;;;;;5543175;25;20448;-81
2024/04/09 02:29:36;;;;;;;5.93;5.30;;;23.80;58.00;;;;;;5527989;25;20572;-81
2024/04/09 02:32:06;;;;;;;5.77;5.27;;;23.70;58.00;;;;;;5527771;25;20465;-81
2024/04/09 02:34:37;;;;;;;5.53;5.07;;;23.80;57.90;;;;;;5512386;25;20468;-81
2024/04/09 02:37:04;;;;;;;5.30;4.90;;;23.70;58.00;;;;;;5537581;25;20506;-82
2024/04/09 02:39:34;;;;;;;6.33;5.73;;;23.70;57.90;;;;;;5530356;25;20468;-81
2024/04/09 02:42:04;;;;;;;10.17;6.13;;;23.70;58.00;;;;;;5515632;25;20518;-82
2024/04/09 02:44:34;;;;;;;5.80;5.30;;;23.70;58.10;;;;;;5522951;25;20581;-80
2024/04/09 02:47:01;;;;;;;6.63;5.57;;;23.70;58.10;;;;;;5527468;25;20487;-81
2024/04/09 02:49:34;;;;;;;6.17;5.60;;;23.70;58.80;;;;;;5511784;25;20454;-81
2024/04/09 02:52:02;;;;;;;6.00;5.40;;;23.70;57.90;;;;;;5527617;25;20441;-81
2024/04/09 02:54:32;;;;;;;5.13;4.70;;;23.70;57.90;;;;;;5527527;25;20457;-81
2024/04/09 02:56:59;;;;;;;6.30;5.67;;;23.70;58.10;;;;;;5527417;25;20453;-81
2024/04/09 02:59:29;;;;;;;5.67;5.17;;;23.70;57.90;;;;;;5522165;25;20456;-81
2024/04/09 03:01:56;;;;;;;5.67;5.10;;;23.70;58.30;;;;;;5510332;25;20530;-80
2024/04/09 03:04:26;;;;;;;5.30;4.80;;;23.70;58.10;;;;;;5507021;25;20510;-80
2024/04/09 03:06:56;;;;;;;5.80;5.20;;;23.70;58.10;;;;;;5504667;25;20493;-81
2024/04/09 03:09:27;;;;;;;7.00;5.70;;;23.70;58.20;;;;;;5503578;25;20574;-81
2024/04/09 03:11:54;;;;;;;7.00;5.67;;;23.70;58.10;;;;;;5505367;25;20444;-82
2024/04/09 03:14:27;;;;;;;5.23;4.80;;;23.70;58.10;;;;;;5501027;25;20456;-81
2024/04/09 03:16:54;;;;;;;6.90;5.60;;;23.70;58.10;;;;;;5513260;25;20539;-81
2024/04/09 03:19:24;;;;;;;7.53;6.83;;;23.70;58.00;;;;;;5520231;25;20468;-81
2024/04/09 03:21:51;;;;;;;7.40;6.30;;;23.70;58.20;;;;;;5517095;25;20459;-81
2024/04/09 03:24:23;;;;;;;9.87;8.07;;;23.70;58.20;;;;;;5535719;25;20436;-82
2024/04/09 03:26:50;;;;;;;9.33;8.33;;;23.70;58.10;;;;;;5512106;25;20472;-81
2024/04/09 03:29:20;;;;;;;9.43;8.17;;;23.70;58.10;;;;;;5515653;25;20469;-81
2024/04/09 03:31:48;;;;;;;11.50;9.70;;;23.70;58.00;;;;;;5500091;25;20452;-80
2024/04/09 03:34:18;;;;;;;14.07;11.17;;;23.70;58.00;;;;;;5497585;25;20509;-77
2024/04/09 03:36:45;;;;;;;15.53;11.53;;;23.60;58.10;;;;;;5503713;25;20504;-80
2024/04/09 03:39:15;;;;;;;13.87;11.30;;;23.70;58.10;;;;;;5504796;25;20548;-80
2024/04/09 03:41:48;;;;;;;17.97;12.80;;;23.60;58.10;;;;;;5523542;25;20541;-80
2024/04/09 03:44:17;;;;;;;17.67;12.60;;;23.60;58.10;;;;;;5500325;26;20462;-81
2024/04/09 03:46:44;;;;;;;16.70;13.60;;;23.60;57.90;;;;;;5507377;25;20495;-81
2024/04/09 03:49:14;;;;;;;17.30;13.80;;;23.60;58.00;;;;;;5498095;25;20436;-81
2024/04/09 03:51:42;;;;;;;17.20;13.20;;;23.60;58.20;;;;;;5507065;25;20500;-82
2024/04/09 03:54:15;;;;;;;21.07;14.50;;;23.60;58.10;;;;;;5504748;25;20433;-82
2024/04/09 03:56:45;;;;;;;18.20;14.03;;;23.60;58.00;;;;;;5514761;25;20512;-80
2024/04/09 03:59:15;;;;;;;18.77;14.33;;;23.60;58.00;;;;;;5517830;25;20441;-81
2024/04/09 04:01:42;;;;;;;19.70;14.90;;;23.50;58.00;;;;;;5530502;25;20487;-80
2024/04/09 04:04:13;;;;;;;19.40;13.47;;;23.50;58.10;;;;;;5520402;25;21025;-81
2024/04/09 04:06:40;;;;;;;20.73;15.47;;;23.50;58.20;;;;;;5502239;25;20482;-81
2024/04/09 04:09:11;;;;;;;20.33;14.57;;;23.50;58.10;;;;;;5515717;25;20512;-81
2024/04/09 04:11:38;;;;;;;21.50;15.33;;;23.50;58.00;;;;;;5515188;25;20520;-80
2024/04/09 04:14:10;;;;;;;20.53;15.30;;;23.50;58.10;;;;;;5521506;25;20478;-80
2024/04/09 04:16:37;;;;;;;21.00;15.67;;;23.50;58.20;;;;;;5508130;25;20496;-80
2024/04/09 04:19:07;;;;;;;21.13;15.80;;;23.50;58.30;;;;;;5501436;25;20444;-80
2024/04/09 04:21:35;;;;;;;19.53;14.80;;;23.40;58.20;;;;;;5500537;25;20527;-80
2024/04/09 04:24:05;;;;;;;20.90;14.80;;;23.40;58.00;;;;;;5510301;25;20469;-80
2024/04/09 04:26:32;;;;;;;22.67;15.73;;;23.40;58.30;;;;;;5529418;25;20444;-80
2024/04/09 04:29:03;;;;;;;21.43;15.20;;;23.40;58.30;;;;;;5515338;25;20519;-80
2024/04/09 04:31:33;;;;;;;21.47;14.27;;;23.40;58.00;;;;;;5514570;25;20480;-82
2024/04/09 04:34:03;;;;;;;19.30;15.30;;;23.40;58.10;;;;;;5514155;25;20456;-81
2024/04/09 04:36:31;;;;;;;20.70;14.50;;;23.40;58.10;;;;;;5529410;25;20452;-80
2024/04/09 04:39:03;;;;;;;21.97;15.07;;;23.50;58.20;;;;;;5508661;25;20537;-81
2024/04/09 04:41:30;;;;;;;23.53;15.13;;;23.40;58.10;;;;;;5529888;25;20463;-80
2024/04/09 04:44:00;;;;;;;22.97;15.03;;;23.40;58.10;;;;;;5529603;25;20441;-81
2024/04/09 04:46:27;;;;;;;21.17;14.77;;;23.40;58.20;;;;;;5516152;25;20450;-80
2024/04/09 04:49:00;;;;;;;18.93;14.37;;;23.40;58.20;;;;;;5508235;25;20460;-81
2024/04/09 04:51:27;;;;;;;20.60;14.40;;;23.40;58.00;;;;;;5512620;25;20542;-81
2024/04/09 04:53:57;;;;;;;16.93;13.30;;;23.40;58.10;;;;;;5514674;25;20460;-80
2024/04/09 04:56:24;;;;;;;19.33;14.40;;;23.40;58.20;;;;;;5529995;25;20441;-81
2024/04/09 04:58:54;;;;;;;23.47;15.60;;;23.40;58.10;;;;;;5525170;25;21008;-81
2024/04/09 05:01:22;;;;;;;17.97;13.77;;;23.40;58.10;;;;;;5538099;25;20494;-82
2024/04/09 05:03:54;;;;;;;17.70;13.40;;;23.40;58.10;;;;;;5532241;25;20440;-81
2024/04/09 05:06:24;;;;;;;18.77;14.20;;;23.40;57.90;;;;;;5504257;25;20444;-82
2024/04/09 05:08:54;;;;;;;18.50;12.83;;;23.40;58.10;;;;;;5504867;25;20518;-81
2024/04/09 05:11:22;;;;;;;17.07;13.30;;;23.40;58.10;;;;;;5507692;25;20513;-80
2024/04/09 05:13:52;;;;;;;18.97;13.13;;;23.30;58.00;;;;;;5522578;25;20503;-79
2024/04/09 05:16:19;;;;;;;16.93;12.93;;;23.30;58.10;;;;;;5510001;25;20509;-80
2024/04/09 05:18:49;;;;;;;17.70;12.53;;;23.30;57.90;;;;;;5508222;25;20473;-81
2024/04/09 05:21:16;;;;;;;17.60;13.40;;;23.30;58.20;;;;;;5509945;25;20584;-80
2024/04/09 05:23:48;;;;;;;14.63;11.10;;;23.30;58.10;;;;;;5507220;25;20478;-80
2024/04/09 05:26:17;;;;;;;17.63;12.13;;;23.40;57.90;;;;;;5521556;25;20447;-81
2024/04/09 05:28:47;;;;;;;17.10;12.60;;;23.40;58.00;;;;;;5516427;25;20439;-80
2024/04/09 05:31:14;;;;;;;16.23;12.20;;;23.40;58.10;;;;;;5509519;25;20474;-81
2024/04/09 05:33:44;;;;;;;15.50;12.20;;;23.30;57.90;;;;;;5524851;25;20460;-79
2024/04/09 05:36:12;;;;;;;15.07;11.83;;;23.40;58.20;;;;;;5492212;25;20450;-80
2024/04/09 05:38:43;;;;;;;15.87;12.83;;;23.40;58.10;;;;;;5507676;25;20555;-81
2024/04/09 05:41:13;;;;;;;16.67;12.50;;;23.40;57.90;;;;;;5503103;25;20516;-80
2024/04/09 05:43:43;;;;;;;14.77;11.10;;;23.40;58.00;;;;;;5499204;25;20554;-80
2024/04/09 05:46:10;;;;;;;15.60;11.57;;;23.40;58.10;;;;;;5501740;25;20479;-82
2024/04/09 05:48:40;;;;;;;16.90;12.13;;;23.40;57.80;;;;;;5521459;25;20456;-81
2024/04/09 05:51:08;;;;;;;16.10;11.80;;;23.40;58.10;;;;;;5507013;25;20913;-80
2024/04/09 05:53:37;;;;;;;15.83;11.40;;;23.40;58.10;;;;;;5503559;25;20518;-80
2024/04/09 05:56:05;;;;;;;15.73;11.23;;;23.40;58.40;;;;;;5522409;25;20518;-81
2024/04/09 05:58:37;;;;;;;15.60;11.63;;;23.40;58.60;;;;;;5528250;25;20457;-80
2024/04/09 06:01:07;;;;;;;13.50;10.50;;;23.40;58.10;;;;;;5516278;25;20473;-81
2024/04/09 06:03:37;;;;;;;14.40;10.67;;;23.40;57.80;;;;;;5516053;25;20513;-80
2024/04/09 06:06:04;;;;;;;12.63;10.10;;;23.40;57.90;;;;;;5522189;25;20505;-79
2024/04/09 06:08:34;;;;;;;15.13;10.33;;;23.40;57.90;;;;;;5495682;25;20532;-80
2024/04/09 06:11:03;;;;;;;14.20;10.40;;;23.40;57.90;;;;;;5519738;25;20440;-80
2024/04/09 06:13:33;;;;;;;15.17;11.10;;;23.40;58.10;;;;;;5518016;25;20525;-80
2024/04/09 06:16:03;;;;;;;14.20;10.50;;;23.40;57.90;;;;;;5492681;25;20454;-81
2024/04/09 06:18:33;;;;;;;13.70;10.53;;;23.40;58.00;;;;;;5514293;25;20517;-80
2024/04/09 06:21:01;;;;;;;11.90;10.13;;;23.40;57.80;;;;;;5503773;25;20511;-80
2024/04/09 06:23:30;;;;;;;16.00;9.70;;;23.40;57.90;;;;;;5502991;25;20448;-81
2024/04/09 06:25:58;;;;;;;14.83;10.30;;;23.40;58.10;;;;;;5515884;25;20435;-80
2024/04/09 06:28:29;;;;;;;13.20;9.90;;;23.40;57.80;;;;;;5523451;25;21016;-79
2024/04/09 06:30:56;;;;;;;11.80;9.53;;;23.40;57.90;;;;;;5510617;25;20464;-80
2024/04/09 06:33:28;;;;;;;11.90;9.70;;;23.40;58.10;;;;;;5498388;25;20441;-80
2024/04/09 06:35:55;;;;;;;11.30;8.70;;;23.40;57.80;;;;;;5512619;25;20561;-80
2024/04/09 06:38:30;;;;;;;11.60;9.00;;;23.50;58.00;;;;;;5505660;25;20532;-81
2024/04/09 06:40:58;;;;;;;12.80;9.50;;;23.50;58.00;;;;;;5525716;25;20441;-80
2024/04/09 06:43:28;;;;;;;10.97;9.30;;;23.50;57.80;;;;;;5503156;25;20465;-80
2024/04/09 06:45:55;;;;;;;10.60;8.90;;;23.50;57.70;;;;;;5527329;25;20473;-81
2024/04/09 06:48:28;;;;;;;9.90;8.80;;;23.50;57.80;;;;;;5533224;25;20466;-79
2024/04/09 06:50:55;;;;;;;12.60;9.30;;;23.50;57.70;;;;;;5504550;26;20450;-79
2024/04/09 06:53:25;;;;;;;9.23;8.03;;;23.50;57.90;;;;;;5510023;26;20470;-82
2024/04/09 06:55:52;;;;;;;11.90;9.33;;;23.50;57.70;;;;;;5492326;26;20473;-81
2024/04/09 06:58:22;;;;;;;9.97;8.20;;;23.50;57.70;;;;;;5491609;26;20466;-81
2024/04/09 07:00:49;;;;;;;9.63;7.70;;;23.50;57.70;;;;;;5492889;25;20509;-81
2024/04/09 07:03:20;;;;;;;13.20;8.53;;;23.60;57.70;;;;;;5514596;26;20484;-82
2024/04/09 07:05:50;;;;;;;11.20;8.67;;;23.70;57.50;;;;;;5511472;26;20478;-81
2024/04/09 07:08:20;;;;;;;12.43;8.57;;;23.70;57.50;;;;;;5492939;25;20884;-81
2024/04/09 07:10:53;;;;;;;10.07;8.60;;;23.70;57.40;;;;;;5488971;26;20442;-81
2024/04/09 07:13:24;;;;;;;9.60;8.10;;;23.80;57.30;;;;;;5488841;26;20462;-81
2024/04/09 07:15:56;;;;;;;12.23;8.60;;;23.70;57.30;;;;;;5524076;25;20458;-80
2024/04/09 07:18:27;;;;;;;16.00;8.53;;;23.70;57.30;;;;;;5512646;26;20471;-81
2024/04/09 07:20:57;;;;;;;11.53;7.73;;;23.70;57.20;;;;;;5509582;25;20557;-81
2024/04/09 07:23:27;;;;;;;10.97;8.23;;;23.70;57.20;;;;;;5494384;26;20450;-82
2024/04/09 07:25:54;;;;;;;8.50;7.50;;;23.70;57.30;;;;;;5507845;26;20470;-82
2024/04/09 07:28:25;;;;;;;11.70;8.13;;;23.70;57.40;;;;;;5497882;26;20466;-83
2024/04/09 07:30:52;;;;;;;9.10;8.07;;;23.60;57.30;;;;;;5504557;26;20473;-82
2024/04/09 07:33:22;;;;;;;8.53;6.90;;;23.60;57.50;;;;;;5493060;26;20493;-82
2024/04/09 07:35:59;;;;;;;9.90;7.77;;;23.60;57.40;;;;;;5505979;26;20446;-81
2024/04/09 07:38:29;;;;;;;8.63;7.20;;;23.60;57.60;;;;;;5519610;26;20492;-83
2024/04/09 07:40:56;;;;;;;7.63;6.80;;;23.60;57.40;;;;;;5506413;26;21118;-83
2024/04/09 07:43:27;;;;;;;8.43;6.93;;;23.60;57.40;;;;;;5521922;25;20519;-82
2024/04/09 07:45:58;;;;;;;7.87;6.60;;;23.70;57.40;;;;;;5502731;25;20469;-82
2024/04/09 07:48:28;;;;;;;7.77;6.90;;;23.80;57.40;;;;;;5506479;25;20483;-82
2024/04/09 07:50:55;;;;;;;7.57;6.27;;;23.80;57.20;;;;;;5508028;26;20509;-81
2024/04/09 07:53:27;;;;;;;8.43;7.10;;;23.80;57.00;;;;;;5508786;26;20481;-81
2024/04/09 07:55:54;;;;;;;9.90;6.90;;;23.70;57.00;;;;;;5506565;26;20449;-82
2024/04/09 07:58:24;;;;;;;7.00;6.33;;;23.80;57.20;;;;;;5507922;25;20521;-82
2024/04/09 08:00:52;;;;;;;9.13;6.70;;;23.70;57.30;;;;;;5508966;26;20436;-81
2024/04/09 08:03:22;;;;;;;8.90;6.83;;;23.70;57.30;;;;;;5505158;26;20452;-82
2024/04/09 08:05:49;;;;;;;15.40;7.30;;;23.70;57.30;;;;;;5506643;26;20970;-81
2024/04/09 08:08:19;;;;;;;8.20;6.33;;;23.70;57.40;;;;;;5512238;25;20497;-82
2024/04/09 08:10:50;;;;;;;8.73;6.40;;;23.60;58.00;;;;;;5509856;25;20511;-81
2024/04/09 08:13:20;;;;;;;6.80;6.10;;;23.70;57.50;;;;;;5510571;26;20476;-81
2024/04/09 08:15:50;;;;;;;7.30;6.47;;;23.60;57.60;;;;;;5505148;25;20527;-81
2024/04/09 08:18:21;;;;;;;8.00;6.80;;;23.60;57.60;;;;;;5510545;26;20469;-82
2024/04/09 08:20:49;;;;;;;8.27;6.60;;;23.60;57.70;;;;;;5504615;25;20504;-81
2024/04/09 08:23:22;;;;;;;7.60;5.97;;;23.60;57.90;;;;;;5511716;25;20448;-81
2024/04/09 08:25:54;;;;;;;8.03;6.10;;;23.60;57.60;;;;;;5511645;25;20452;-81
2024/04/09 08:28:22;;;;;;;9.67;5.60;;;23.60;57.70;;;;;;5508156;26;20582;-81
2024/04/09 08:30:53;;;;;;;8.80;6.20;;;23.60;57.50;;;;;;5511343;26;20965;-81
2024/04/09 08:33:20;;;;;;;7.43;5.60;;;23.60;57.50;;;;;;5508105;26;20527;-81
2024/04/09 08:35:51;;;;;;;6.57;5.97;;;23.60;57.50;;;;;;5512952;25;20532;-80
2024/04/09 08:38:20;;;;;;;7.93;5.50;;;23.60;57.60;;;;;;5509534;25;20476;-81
2024/04/09 08:40:50;;;;;;;6.10;5.33;;;23.60;57.50;;;;;;5513090;25;20454;-81
2024/04/09 08:43:21;;;;;;;6.87;5.47;;;23.60;57.50;;;;;;5510321;25;20462;-81
2024/04/09 08:45:51;;;;;;;6.50;5.80;;;23.70;57.40;;;;;;5521446;26;20472;-81
2024/04/09 08:48:18;;;;;;;8.30;6.23;;;23.60;57.50;;;;;;5513643;25;20507;-80
2024/04/09 08:50:51;;;;;;;6.70;5.53;;;23.60;57.50;;;;;;5508888;25;20462;-81
2024/04/09 08:53:19;;;;;;;8.27;5.73;;;23.50;57.40;;;;;;5513628;25;20480;-81
2024/04/09 08:55:50;;;;;;;5.90;5.40;;;23.60;57.70;;;;;;5506731;25;20477;-81
2024/04/09 08:58:20;;;;;;;8.70;5.63;;;23.50;57.50;;;;;;5514937;26;20476;-81
2024/04/09 09:00:50;;;;;;;6.63;5.60;;;23.50;57.60;;;;;;5514203;25;20454;-80
2024/04/09 09:03:17;;;;;;;8.87;5.47;;;23.50;57.50;;;;;;5511698;26;20466;-80
2024/04/09 09:05:47;;;;;;;8.30;5.83;;;23.50;57.70;;;;;;5513673;25;20501;-80
2024/04/09 09:08:16;;;;;;;6.13;5.53;;;23.50;57.50;;;;;;5508630;26;20466;-80
2024/04/09 09:10:56;;;;;;;5.47;4.93;;;23.50;57.60;;;;;;5512782;25;20462;-80
2024/04/09 09:13:28;;;;;;;5.97;5.37;;;23.50;57.70;;;;;;5509772;26;20531;-79
2024/04/09 09:15:58;;;;;;;6.60;5.43;;;23.50;57.60;;;;;;5513019;26;20473;-81
2024/04/09 09:18:27;;;;;;;8.13;5.20;;;23.50;57.50;;;;;;5513084;25;20468;-80
2024/04/09 09:21:01;;;;;;;6.47;5.27;;;23.50;57.40;;;;;;5529750;26;20501;-79
2024/04/09 09:23:32;;;;;;;6.50;4.93;;;23.50;57.60;;;;;;5514629;25;20523;-79
2024/04/09 09:25:59;;;;;;;5.77;5.20;;;23.50;57.70;;;;;;5528755;25;20569;-79
2024/04/09 09:28:31;;;;;;;5.73;5.13;;;23.40;57.50;;;;;;5519364;26;20456;-79
2024/04/09 09:30:58;;;;;;;5.70;5.10;;;23.40;57.60;;;;;;5529442;25;20473;-81
2024/04/09 09:33:30;;;;;;;6.13;4.80;;;23.40;57.50;;;;;;5527651;25;21017;-81
2024/04/09 09:35:58;;;;;;;5.20;4.73;;;23.40;57.40;;;;;;5527142;25;20522;-81
2024/04/09 09:38:28;;;;;;;5.53;4.93;;;23.40;57.60;;;;;;5527835;26;20441;-80
2024/04/09 09:40:57;;;;;;;6.60;5.17;;;23.40;57.50;;;;;;5529043;26;20490;-80
2024/04/09 09:43:27;;;;;;;6.57;5.57;;;23.40;57.60;;;;;;5519351;25;20503;-79
2024/04/09 09:45:57;;;;;;;5.83;4.43;;;23.40;57.50;;;;;;5496728;26;20457;-80
2024/04/09 09:48:27;;;;;;;6.97;4.80;;;23.40;57.40;;;;;;5527009;25;20981;-79
2024/04/09 09:50:54;;;;;;;5.37;4.87;;;23.40;57.40;;;;;;5528804;25;20437;-81
2024/04/09 09:53:24;;;;;;;4.93;4.47;;;23.40;57.50;;;;;;5533671;25;20460;-80
2024/04/09 09:55:53;;;;;;;4.43;4.10;;;23.50;57.60;;;;;;5532876;25;20468;-82
2024/04/09 09:58:25;;;;;;;4.70;4.30;;;23.50;57.40;;;;;;5528986;26;20517;-80
2024/04/09 10:00:52;;;;;;;5.80;4.80;;;23.60;57.40;;;;;;5533485;25;20495;-81
2024/04/09 10:03:25;;;;;;;5.23;4.30;;;23.60;57.20;;;;;;5534557;25;20461;-80
2024/04/09 10:05:53;;;;;;;6.20;4.77;;;23.60;57.40;;;;;;5533003;25;20448;-80
2024/04/09 10:08:23;;;;;;;5.10;4.50;;;23.60;57.60;;;;;;5510858;25;20579;-81
2024/04/09 10:10:53;;;;;;;6.10;4.73;;;23.60;57.40;;;;;;5512116;25;20460;-81
2024/04/09 10:13:27;;;;;;;6.43;4.80;;;23.60;57.60;;;;;;5523606;25;20482;-81
2024/04/09 10:15:55;;;;;;;6.73;4.37;;;23.50;57.50;;;;;;5512684;25;20488;-80
2024/04/09 10:18:38;;;;;;;6.13;4.37;;;23.50;57.50;;;;;;5510025;25;20525;-79
2024/04/09 10:21:11;;;;;;;7.50;3.80;;;23.50;57.90;;;;;;5510146;25;20541;-81
2024/04/09 10:23:41;;;;;;;5.03;4.53;;;23.50;57.80;;;;;;5509114;26;20525;-81
2024/04/09 10:26:08;;;;;;;4.80;4.40;;;23.60;57.70;;;;;;5529935;25;20516;-81
2024/04/09 10:28:39;;;;;;;4.23;3.83;;;23.60;57.60;;;;;;5529466;25;20452;-81
2024/04/09 10:31:08;;;;;;;6.23;4.63;;;23.50;57.70;;;;;;5529068;25;20456;-81
2024/04/09 10:33:42;;;;;;;5.53;5.00;;;23.50;57.80;;;;;;5528918;25;20440;-80
2024/04/09 10:36:11;;;;;;;4.40;4.10;;;23.60;57.70;;;;;;5530666;26;21004;-81
2024/04/09 10:38:43;;;;;;;6.30;4.60;;;23.50;57.80;;;;;;5528980;25;20574;-81
2024/04/09 10:41:14;;;;;;;5.20;4.77;;;23.50;57.80;;;;;;5515303;25;20548;-81
2024/04/09 10:43:44;;;;;;;6.00;4.47;;;23.50;57.90;;;;;;5537177;25;20455;-80
2024/04/09 10:46:11;;;;;;;5.90;4.30;;;23.60;57.80;;;;;;5568347;25;20508;-80
2024/04/09 10:48:47;;;;;;;4.80;4.40;;;23.60;58.00;;;;;;5568730;25;20463;-80
2024/04/09 10:51:14;;;;;;;4.87;4.47;;;23.60;58.00;;;;;;5567310;25;20439;-80
2024/04/09 10:53:47;;;;;;;4.47;4.17;;;23.60;57.70;;;;;;5545378;25;20476;-80
2024/04/09 10:56:14;;;;;;;4.23;3.93;;;23.50;58.00;;;;;;5530769;26;20441;-80
2024/04/09 10:58:44;;;;;;;3.80;3.50;;;23.60;57.90;;;;;;5526119;25;20534;-82
2024/04/09 11:01:15;;;;;;;4.60;4.30;;;23.50;57.80;;;;;;5507676;25;20566;-79
2024/04/09 11:03:48;;;;;;;4.50;4.03;;;23.50;57.80;;;;;;5512500;25;20508;-80
2024/04/09 11:06:16;;;;;;;4.87;4.40;;;23.50;58.00;;;;;;5516450;25;20529;-80
2024/04/09 11:08:47;;;;;;;4.63;4.23;;;23.50;58.10;;;;;;5523815;25;20521;-81
2024/04/09 11:11:14;;;;;;;4.13;3.57;;;23.40;58.00;;;;;;5510389;26;20439;-81
2024/04/09 11:13:45;;;;;;;4.23;3.77;;;23.50;58.10;;;;;;5515886;25;20446;-80
2024/04/09 11:16:18;;;;;;;3.80;3.50;;;23.40;58.00;;;;;;5506405;26;20470;-80
2024/04/09 11:18:59;;;;;;;3.40;3.10;;;23.40;58.00;;;;;;5516952;25;20465;-79
2024/04/09 11:21:27;;;;;;;4.40;4.10;;;23.50;58.10;;;;;;5509104;26;20553;-82
2024/04/09 11:23:57;;;;;;;3.43;3.23;;;23.50;58.00;;;;;;5514978;25;20541;-81
2024/04/09 11:26:25;;;;;;;7.30;3.37;;;23.50;57.90;;;;;;5509748;25;20470;-81
2024/04/09 11:28:55;;;;;;;3.20;2.90;;;23.40;58.00;;;;;;5515041;25;20468;-82
2024/04/09 11:31:23;;;;;;;3.70;3.00;;;23.40;58.00;;;;;;5510973;25;20466;-81
2024/04/09 11:33:53;;;;;;;4.07;3.00;;;23.40;57.90;;;;;;5512416;25;20466;-81
2024/04/09 11:36:23;;;;;;;3.07;2.87;;;23.30;57.80;;;;;;5513548;25;20452;-82
2024/04/09 11:39:00;;;;;;;5.60;3.07;;;23.30;58.00;;;;;;5530310;25;20472;-82
2024/04/09 11:41:31;;;;;;;3.07;2.73;;;23.30;57.90;;;;;;5529338;25;20505;-82
2024/04/09 11:44:09;;;;;;;4.33;2.63;;;23.20;57.70;;;;;;5518993;25;20540;-81
2024/04/09 11:46:39;;;;;;;3.57;2.70;;;23.20;58.00;;;;;;5509557;25;20480;-80
2024/04/09 11:49:08;;;;;;;2.93;2.73;;;23.20;57.90;;;;;;5511977;25;20497;-80
2024/04/09 11:51:39;;;;;;;2.97;2.73;;;23.10;57.80;;;;;;5516589;25;20510;-80
2024/04/09 11:57:30;;;;;;;7.10;3.00;;;23.10;57.90;;;;;;5403590;25;20925;-81
2024/04/09 11:59:57;;;;;;;3.10;2.50;;;23.10;57.60;;;;;;5494506;26;20557;-80
2024/04/09 12:02:27;;;;;;;2.87;2.60;;;23.10;57.80;;;;;;5511457;25;20446;-80
2024/04/09 12:04:54;;;;;;;2.57;2.37;;;23.10;57.70;;;;;;5505893;25;20574;-80
2024/04/09 12:07:27;;;;;;;2.53;2.33;;;23.10;57.80;;;;;;5513206;25;21126;-79
2024/04/09 12:09:54;;;;;;;4.20;2.10;;;23.10;57.70;;;;;;5513772;26;20440;-80
2024/04/09 12:12:23;;;;;;;2.63;2.43;;;23.10;57.60;;;;;;5512992;25;20605;-80
2024/04/09 12:14:51;;;;;;;1.90;1.80;;;23.10;57.60;;;;;;5511913;26;21009;-80
2024/04/09 12:17:20;;;;;;;4.47;2.57;;;23.10;57.60;;;;;;5514765;25;20465;-80
2024/04/09 12:19:48;;;;;;;4.27;2.20;;;23.10;57.60;;;;;;5516420;25;20466;-81
2024/04/09 12:22:18;;;;;;;2.37;2.17;;;23.20;57.60;;;;;;5503990;25;20469;-80
2024/04/09 12:24:48;;;;;;;8.17;2.27;;;23.20;57.50;;;;;;5512051;25;20517;-80
2024/04/09 12:27:17;;;;;;;3.00;2.30;;;23.30;58.10;;;;;;5511448;25;20583;-80
2024/04/09 12:29:46;;;;;;;2.80;1.90;;;23.40;57.20;;;;;;5509917;26;20485;-80
2024/04/09 12:32:15;;;;;;;2.13;1.97;;;23.60;57.10;;;;;;5520399;25;20465;-80
2024/04/09 12:34:42;;;;;;;3.43;2.03;;;23.70;56.80;;;;;;5516360;25;20465;-80
2024/04/09 12:37:12;;;;;;;1.83;1.60;;;23.70;56.80;;;;;;5517016;25;20583;-80
2024/04/09 12:39:39;;;;;;;2.50;1.57;;;23.70;56.60;;;;;;5512386;26;20517;-80
2024/04/09 12:42:12;;;;;;;1.83;1.70;;;23.80;56.60;;;;;;5520402;25;20493;-80
2024/04/09 12:44:43;;;;;;;3.27;2.00;;;23.90;56.40;;;;;;5497387;26;20888;-80
2024/04/09 12:47:11;;;;;;;1.60;1.50;;;24.10;56.20;;;;;;5509290;25;20468;-80
2024/04/09 12:49:41;;;;;;;2.13;1.70;;;24.20;55.50;;;;;;5508683;26;20520;-79
2024/04/09 12:52:11;;;;;;;1.87;1.77;;;24.20;55.60;;;;;;5513797;25;20515;-79
2024/04/09 12:54:41;;;;;;;1.83;1.73;;;24.10;55.50;;;;;;5528652;25;20446;-80
2024/04/09 12:57:11;;;;;;;3.37;1.87;;;24.10;55.60;;;;;;5535970;25;20436;-81
2024/04/09 12:59:41;;;;;;;2.33;1.43;;;24.10;55.70;;;;;;5533594;25;20500;-80
2024/04/09 13:02:28;;;;;;;4.67;2.30;;;24.00;55.70;;;;;;5542452;25;20421;-81
2024/04/09 13:04:58;;;;;;;2.17;1.97;;;24.00;55.80;;;;;;5520672;25;20551;-80
2024/04/09 13:07:26;;;;;;;3.17;1.60;;;23.90;55.70;;;;;;5531303;25;20460;-77
2024/04/09 13:09:56;;;;;;;3.93;1.90;;;23.90;55.90;;;;;;5525866;25;20422;-81